Wroughton, United Kingdom
Current Conditions -  °F | °C
As of 8:58 PM on Saturday 20 Dec 2014 (Local Time) from EGVA Reporting Station
Scattered Clouds Scattered Clouds  
Wind Chill:   Ceiling: Unl
Heat Index:   Visibility: 6mi
Dew Point:   Wind: 7mph
Humidity: 89%   Direction: 230°SW
Pressure: 30.43"   Gusts: NA
Location:  51.52°N, 1.8°W
Report Text: EGVA 202058Z AUTO 23006KT 9999 SCT038 05/03 A3043 RMK AO2 SLP311 T00490033 52013
Loading
Personal Weather Stations






























Interactive Weather Map New forecast layout! Learn more

10-Day Weather Forecast

Advertisements
Track Severe Weather on mobile